createdAt,value
2018-09-14T00:00:45.625Z,13.35
2018-09-14T00:03:13.957Z,16.02
2018-09-14T00:05:42.869Z,13.13
2018-09-14T00:08:11.211Z,12.05
2018-09-14T00:10:38.952Z,12.27
2018-09-14T00:13:07.863Z,13.50
2018-09-14T00:15:36.193Z,11.90
2018-09-14T00:18:04.522Z,11.60
2018-09-14T00:20:32.846Z,11.20
2018-09-14T00:23:01.750Z,11.63
2018-09-14T00:25:29.497Z,12.15
2018-09-14T00:27:58.529Z,10.60
2018-09-14T00:30:26.273Z,11.90
2018-09-14T00:32:54.594Z,10.88
2018-09-14T00:35:23.500Z,10.05
2018-09-14T00:37:51.819Z,9.75
2018-09-14T00:40:20.141Z,9.20
2018-09-14T00:42:48.458Z,9.00
2018-09-14T00:45:16.782Z,9.40
2018-09-14T00:47:45.109Z,9.75
2018-09-14T00:50:13.423Z,10.43
2018-09-14T00:52:41.170Z,8.88
2018-09-14T00:55:10.071Z,10.10
2018-09-14T00:57:38.402Z,9.77
2018-09-14T01:00:06.144Z,11.35
2018-09-14T01:02:35.044Z,8.63
2018-09-14T01:05:02.778Z,8.38
2018-09-14T01:07:31.102Z,7.32
2018-09-14T01:10:00.005Z,7.35
2018-09-14T01:12:28.326Z,9.05
2018-09-14T01:14:56.644Z,7.43
2018-09-14T01:17:24.967Z,8.93
2018-09-14T01:19:53.292Z,8.43
2018-09-14T01:22:21.608Z,7.93
2018-09-14T01:24:49.349Z,6.78
2018-09-14T01:27:18.245Z,8.02
2018-09-14T01:29:46.571Z,7.80
2018-09-14T01:32:14.890Z,6.57
2018-09-14T01:34:42.630Z,7.78
2018-09-14T01:37:11.528Z,8.55
2018-09-14T01:39:39.841Z,7.85
2018-09-14T01:42:08.161Z,7.07
2018-09-14T01:44:36.480Z,7.82
2018-09-14T01:47:04.793Z,6.72
2018-09-14T01:49:33.113Z,7.03
2018-09-14T01:52:01.433Z,6.12
2018-09-14T01:54:29.752Z,8.13
2018-09-14T01:56:57.495Z,6.97
2018-09-14T01:59:26.393Z,6.20
2018-09-14T02:01:54.713Z,7.62
2018-09-14T02:04:22.453Z,6.50
2018-09-14T02:06:50.772Z,6.72
2018-09-14T02:09:19.670Z,6.97
2018-09-14T02:11:47.989Z,6.22
2018-09-14T02:14:16.309Z,7.82
2018-09-14T02:16:44.626Z,6.22
2018-09-14T02:19:12.940Z,5.62
2018-09-14T02:21:41.262Z,5.75
2018-09-14T02:24:09.588Z,6.37
2018-09-14T02:26:37.330Z,7.97
2018-09-14T02:29:06.230Z,5.85
2018-09-14T02:31:34.544Z,5.10
2018-09-14T02:34:02.861Z,6.80
2018-09-14T02:36:31.180Z,6.53
2018-09-14T02:38:59.505Z,5.65
2018-09-14T02:41:27.824Z,6.53
2018-09-14T02:43:56.139Z,6.93
2018-09-14T02:46:23.876Z,6.60
2018-09-14T02:48:52.776Z,6.15
2018-09-14T02:51:21.107Z,5.10
2018-09-14T02:53:49.418Z,5.45
2018-09-14T02:56:17.739Z,5.10
2018-09-14T02:58:45.480Z,6.30
2018-09-14T03:01:13.801Z,6.65
2018-09-14T03:03:42.709Z,4.90
2018-09-14T03:06:10.451Z,5.32
2018-09-14T03:08:39.347Z,7.35
2018-09-14T03:11:07.667Z,5.65
2018-09-14T03:13:35.987Z,5.37
2018-09-14T03:16:04.311Z,6.18
2018-09-14T03:18:32.636Z,6.47
2018-09-14T03:21:00.949Z,4.95
2018-09-14T03:23:29.269Z,6.60
2018-09-14T03:25:57.589Z,5.25
2018-09-14T03:28:25.910Z,6.03
2018-09-14T03:30:53.653Z,6.18
2018-09-14T03:33:22.548Z,4.93
2018-09-14T03:35:50.289Z,5.97
2018-09-14T03:38:19.182Z,6.03
2018-09-14T03:40:47.502Z,4.87
2018-09-14T03:43:15.829Z,5.57
2018-09-14T03:45:44.153Z,4.95
2018-09-14T03:48:11.885Z,5.95
2018-09-14T03:50:40.780Z,6.85
2018-09-14T03:53:08.522Z,8.43
2018-09-14T03:55:37.424Z,5.55
2018-09-14T03:58:05.725Z,7.32
2018-09-14T04:00:34.066Z,6.43
2018-09-14T04:03:02.389Z,6.30
2018-09-14T04:05:30.712Z,5.12
2018-09-14T04:07:59.030Z,5.93
2018-09-14T04:10:27.348Z,5.72
2018-09-14T04:12:55.089Z,7.68
2018-09-14T04:15:23.987Z,6.12
2018-09-14T04:17:51.733Z,5.55
2018-09-14T04:20:20.633Z,5.62
2018-09-14T04:22:48.480Z,6.25
2018-09-14T04:25:17.377Z,5.93
2018-09-14T04:27:45.117Z,6.30
2018-09-14T04:30:14.020Z,5.80
2018-09-14T04:32:42.330Z,5.50
2018-09-14T04:35:10.471Z,7.70
2018-09-14T04:37:38.393Z,5.35
2018-09-14T04:40:07.289Z,5.50
2018-09-14T04:42:35.605Z,5.03
2018-09-14T04:45:03.924Z,5.30
2018-09-14T04:47:31.661Z,6.03
2018-09-14T04:50:00.556Z,7.37
2018-09-14T04:52:28.895Z,6.55
2018-09-14T04:54:57.196Z,4.95
2018-09-14T04:57:25.629Z,4.75
2018-09-14T04:59:53.266Z,6.25
2018-09-14T05:02:21.590Z,5.75
2018-09-14T05:04:50.485Z,4.53
2018-09-14T05:07:18.808Z,5.87
2018-09-14T05:09:46.555Z,5.87
2018-09-14T05:12:15.452Z,5.68
2018-09-14T05:14:43.771Z,4.68
2018-09-14T05:17:12.092Z,7.35
2018-09-14T05:19:40.416Z,5.78
2018-09-14T05:22:08.738Z,4.40
2018-09-14T05:24:37.068Z,5.07
2018-09-14T05:27:05.387Z,6.30
2018-09-14T05:29:33.706Z,5.47
2018-09-14T05:32:02.022Z,9.48
2018-09-14T05:34:30.363Z,13.73
2018-09-14T05:36:58.689Z,7.43
2018-09-14T05:39:27.015Z,10.43
2018-09-14T05:41:55.376Z,14.07
2018-09-14T05:44:23.705Z,41.83
2018-09-14T05:46:51.455Z,18.40
2018-09-14T05:49:19.788Z,17.67
2018-09-14T05:51:48.699Z,15.18
2018-09-14T05:54:17.054Z,13.27
2018-09-14T05:56:44.791Z,11.73
2018-09-14T05:59:13.705Z,11.90
2018-09-14T06:01:42.031Z,14.98
2018-09-14T06:04:10.355Z,18.33
2018-09-14T06:06:38.177Z,18.12
2018-09-14T06:09:07.021Z,17.27
2018-09-14T06:11:34.771Z,21.80
2018-09-14T06:14:03.100Z,20.40
2018-09-14T06:16:31.437Z,23.67
2018-09-14T06:19:00.350Z,22.58
2018-09-14T06:21:28.116Z,19.35
2018-09-14T06:23:57.037Z,17.17
2018-09-14T06:26:25.374Z,18.87
2018-09-14T06:28:53.712Z,19.62
2018-09-14T06:31:22.040Z,17.25
2018-09-14T06:33:49.793Z,17.62
2018-09-14T06:36:18.122Z,14.87
2018-09-14T06:38:46.457Z,16.30
2018-09-14T06:41:15.387Z,14.73
2018-09-14T06:43:43.724Z,17.83
2018-09-14T06:46:11.472Z,21.20
2018-09-14T06:48:40.380Z,31.55
2018-09-14T06:51:08.141Z,46.00
2018-09-14T06:53:36.470Z,50.05
2018-09-14T06:56:04.797Z,50.17
2018-09-14T06:58:33.129Z,51.58
2018-09-14T07:01:02.056Z,63.50
2018-09-14T07:03:30.389Z,59.10
2018-09-14T07:05:58.718Z,57.75
2018-09-14T07:08:26.469Z,58.67
2018-09-14T07:10:55.381Z,70.12
2018-09-14T07:13:23.715Z,68.78
2018-09-14T07:15:52.058Z,70.75
2018-09-14T07:18:19.805Z,71.82
2018-09-14T07:20:48.133Z,73.75
2018-09-14T07:23:17.041Z,77.05
2018-09-14T07:25:45.382Z,73.45
2018-09-14T07:28:13.729Z,84.60
2018-09-14T07:30:42.054Z,72.55
2018-09-14T07:33:10.382Z,80.05
2018-09-14T07:35:38.727Z,72.25
2018-09-14T07:38:07.063Z,71.70
2018-09-14T07:40:35.401Z,67.22
2018-09-14T07:43:03.161Z,83.03
2018-09-14T07:45:32.075Z,76.22
2018-09-14T07:47:59.829Z,78.45
2018-09-14T07:50:28.745Z,76.53
2018-09-14T07:52:57.079Z,66.00
2018-09-14T07:55:25.421Z,64.45
2018-09-14T07:57:53.344Z,59.92
2018-09-14T08:00:21.506Z,64.60
2018-09-14T08:02:49.836Z,57.53
2018-09-14T08:05:18.754Z,61.60
2018-09-14T08:07:46.701Z,51.65
2018-09-14T08:10:14.841Z,51.05
2018-09-14T08:12:43.176Z,66.53
2018-09-14T08:15:11.510Z,55.97
2018-09-14T08:17:40.426Z,53.58
2018-09-14T08:20:08.781Z,54.05
2018-09-14T08:22:37.096Z,53.05
2018-09-14T08:25:05.433Z,51.85
2018-09-14T08:27:33.769Z,48.13
2018-09-14T08:30:01.668Z,45.00
2018-09-14T08:32:30.439Z,54.08
2018-09-14T08:34:58.196Z,47.22
2018-09-14T08:37:27.116Z,27.23
2018-09-14T08:39:55.443Z,33.83
2018-09-14T08:42:23.778Z,39.10
2018-09-14T08:44:52.115Z,34.13
2018-09-14T08:47:20.451Z,35.47
2018-09-14T08:49:49.309Z,37.78
2018-09-14T08:52:17.064Z,32.05
2018-09-14T08:54:45.979Z,36.30
2018-09-14T08:57:14.313Z,34.78
2018-09-14T08:59:42.645Z,38.97
2018-09-14T09:02:10.982Z,33.22
2018-09-14T09:04:38.737Z,33.97
2018-09-14T09:07:07.109Z,31.45
2018-09-14T09:09:35.413Z,29.85
2018-09-14T09:12:03.747Z,34.65
2018-09-14T09:14:32.085Z,29.50
2018-09-14T09:17:00.424Z,28.58
2018-09-14T09:19:29.379Z,26.27
2018-09-14T09:21:57.676Z,30.42
2018-09-14T09:24:25.527Z,29.05
2018-09-14T09:26:54.382Z,27.83
2018-09-14T09:29:22.735Z,26.52
2018-09-14T09:31:51.453Z,27.73
2018-09-14T09:34:19.787Z,25.27
2018-09-14T09:36:47.542Z,26.30
2018-09-14T09:39:16.456Z,24.85
2018-09-14T09:41:44.787Z,25.55
2018-09-14T09:44:13.123Z,25.70
2018-09-14T09:46:41.468Z,25.52
2018-09-14T09:49:09.808Z,22.37
2018-09-14T09:51:38.137Z,20.98
2018-09-14T09:54:06.472Z,22.42
2018-09-14T09:56:34.852Z,21.67
2018-09-14T09:59:03.147Z,23.10
2018-09-14T10:01:30.910Z,18.83
2018-09-14T10:03:59.277Z,19.23
2018-09-14T10:06:28.159Z,20.65
2018-09-14T10:08:56.527Z,33.15
2018-09-14T10:11:24.860Z,47.78
2018-09-14T10:13:52.824Z,27.92
2018-09-14T10:16:21.422Z,23.25
2018-09-14T10:18:50.335Z,21.98
2018-09-14T10:21:18.211Z,19.17
2018-09-14T10:23:46.436Z,17.92
2018-09-14T10:26:15.355Z,20.10
2018-09-14T10:28:43.910Z,16.77
2018-09-14T10:31:12.240Z,17.60
2018-09-14T10:33:40.758Z,14.05
2018-09-14T10:36:09.092Z,15.32
2018-09-14T10:38:37.416Z,14.70
2018-09-14T10:41:05.744Z,11.60
2018-09-14T10:43:34.071Z,12.30
2018-09-14T10:46:01.874Z,13.15
2018-09-14T10:48:30.779Z,13.48
2018-09-14T10:50:59.103Z,12.30
2018-09-14T10:53:27.433Z,23.35
2018-09-14T10:55:55.763Z,20.17
2018-09-14T10:58:23.517Z,17.27
2018-09-14T11:00:52.527Z,16.48
2018-09-14T11:03:20.715Z,14.10
2018-09-14T11:05:48.554Z,15.32
2018-09-14T11:08:17.467Z,15.18
2018-09-14T11:10:45.217Z,12.48
2018-09-14T11:13:13.558Z,15.23
2018-09-14T11:15:41.892Z,13.45
2018-09-14T11:18:10.219Z,13.27
2018-09-14T11:20:39.177Z,14.05
2018-09-14T11:23:07.463Z,14.55
2018-09-14T11:25:35.798Z,13.40
2018-09-14T11:28:03.989Z,11.70
2018-09-14T11:30:32.455Z,12.90
2018-09-14T11:33:00.787Z,12.07
2018-09-14T11:35:29.117Z,11.98
2018-09-14T11:37:57.514Z,11.68
2018-09-14T11:40:25.771Z,12.82
2018-09-14T11:42:53.517Z,20.95
2018-09-14T11:45:22.588Z,14.18
2018-09-14T11:47:50.181Z,11.63
2018-09-14T11:50:19.089Z,6.47
2018-09-14T11:52:48.050Z,6.57
2018-09-14T11:55:15.800Z,6.85
2018-09-14T11:57:44.691Z,9.05
2018-09-14T12:00:13.016Z,11.18
2018-09-14T12:02:41.339Z,8.98
2018-09-14T12:05:09.372Z,8.20
2018-09-14T12:07:37.421Z,8.13
2018-09-14T12:10:05.752Z,10.73
2018-09-14T12:12:34.348Z,12.60
2018-09-14T12:15:03.275Z,19.12
2018-09-14T12:17:31.012Z,10.32
2018-09-14T12:19:59.342Z,9.35
2018-09-14T12:22:28.264Z,8.95
2018-09-14T12:24:56.576Z,6.37
2018-09-14T12:27:24.897Z,7.03
2018-09-14T12:29:53.233Z,6.25
2018-09-14T12:32:21.693Z,6.80
2018-09-14T12:34:50.038Z,6.65
2018-09-14T12:37:18.336Z,6.55
2018-09-14T12:39:47.458Z,9.07
2018-09-14T12:42:15.780Z,5.50
2018-09-14T12:44:44.113Z,7.10
2018-09-14T12:47:12.491Z,6.62
2018-09-14T12:49:40.224Z,6.10
2018-09-14T12:52:08.577Z,4.75
2018-09-14T12:54:37.441Z,7.07
2018-09-14T12:57:05.767Z,7.30
2018-09-14T12:59:34.189Z,6.80
2018-09-14T13:02:01.939Z,11.90
2018-09-14T13:04:30.856Z,15.77
2018-09-14T13:06:58.605Z,12.82
2018-09-14T13:09:27.505Z,8.55
2018-09-14T13:11:55.820Z,8.15
2018-09-14T13:14:24.179Z,7.65
2018-09-14T13:16:52.465Z,7.00
2018-09-14T13:19:20.793Z,6.40
2018-09-14T13:21:48.830Z,4.70
2018-09-14T13:24:17.790Z,6.37
2018-09-14T13:26:46.053Z,4.75
2018-09-14T13:29:13.794Z,7.57
2018-09-14T13:31:42.697Z,5.32
2018-09-14T13:34:10.445Z,7.12
2018-09-14T13:36:39.347Z,7.50
2018-09-14T13:39:07.673Z,6.12
2018-09-14T13:41:36.002Z,6.43
2018-09-14T13:44:04.310Z,6.18
2018-09-14T13:46:32.630Z,6.90
2018-09-14T13:49:00.969Z,5.15
2018-09-14T13:51:28.886Z,11.68
2018-09-14T13:53:57.790Z,8.00
2018-09-14T13:56:26.109Z,6.47
2018-09-14T13:58:53.941Z,6.37
2018-09-14T14:01:22.919Z,7.47
2018-09-14T14:03:51.207Z,6.60
2018-09-14T14:06:18.948Z,5.70
2018-09-14T14:08:47.847Z,6.43
2018-09-14T14:11:17.037Z,6.85
2018-09-14T14:13:45.404Z,5.47
2018-09-14T14:16:13.731Z,6.35
2018-09-14T14:18:42.055Z,9.68
2018-09-14T14:21:10.756Z,8.40
2018-09-14T14:23:38.491Z,8.93
2018-09-14T14:26:07.389Z,6.40
2018-09-14T14:28:36.099Z,9.90
2018-09-14T14:31:03.844Z,6.07
2018-09-14T14:33:32.754Z,8.23
2018-09-14T14:36:01.085Z,9.73
2018-09-14T14:38:29.703Z,6.37
2018-09-14T14:40:58.026Z,6.68
2018-09-14T14:43:25.789Z,6.65
2018-09-14T14:45:54.284Z,6.18
2018-09-14T14:48:22.671Z,6.22
2018-09-14T14:50:50.990Z,6.60
2018-09-14T14:53:19.326Z,13.40
2018-09-14T14:55:47.683Z,16.60
2018-09-14T14:58:16.641Z,7.93
2018-09-14T15:00:44.965Z,7.62
2018-09-14T15:03:13.291Z,10.85
2018-09-14T15:05:41.617Z,4.95
2018-09-14T15:08:09.938Z,5.50
2018-09-14T15:10:37.733Z,6.75
2018-09-14T15:13:07.188Z,7.05
2018-09-14T15:15:35.507Z,5.85
2018-09-14T15:18:03.822Z,6.18
2018-09-14T15:20:32.148Z,6.47
2018-09-14T15:23:00.750Z,7.80
2018-09-14T15:25:28.782Z,4.60
2018-09-14T15:27:57.687Z,5.35
2018-09-14T15:30:26.021Z,15.00
2018-09-14T15:32:53.928Z,8.32
2018-09-14T15:35:22.248Z,9.75
2018-09-14T15:37:52.001Z,14.45
2018-09-14T15:40:19.749Z,13.88
2018-09-14T15:42:48.742Z,7.15
2018-09-14T15:45:17.065Z,7.93
2018-09-14T15:47:45.386Z,7.30
2018-09-14T15:50:13.713Z,9.98
2018-09-14T15:52:41.989Z,8.82
2018-09-14T15:55:10.892Z,6.28
2018-09-14T15:57:39.733Z,9.38
2018-09-14T16:00:08.038Z,7.45
2018-09-14T16:02:35.781Z,15.32
2018-09-14T16:05:04.162Z,10.18
2018-09-14T16:07:32.477Z,32.70
2018-09-14T16:10:01.461Z,25.27
2018-09-14T16:12:29.217Z,24.37
2018-09-14T16:14:58.131Z,19.12
2018-09-14T16:17:26.477Z,19.20
2018-09-14T16:19:54.818Z,16.17
2018-09-14T16:22:23.157Z,16.90
2018-09-14T16:24:51.485Z,13.98
2018-09-14T16:27:19.817Z,13.00
2018-09-14T16:29:48.174Z,12.30
2018-09-14T16:32:15.928Z,21.80
2018-09-14T16:34:44.849Z,23.83
2018-09-14T16:37:13.187Z,14.60
2018-09-14T16:39:41.569Z,14.27
2018-09-14T16:42:09.902Z,14.85
2018-09-14T16:44:38.232Z,15.65
2018-09-14T16:47:05.980Z,13.35
2018-09-14T16:49:35.028Z,12.45
2018-09-14T16:52:02.780Z,10.95
2018-09-14T16:54:31.689Z,9.73
2018-09-14T16:56:59.431Z,14.18
2018-09-14T16:59:28.344Z,15.40
2018-09-14T17:01:56.676Z,15.85
2018-09-14T17:04:25.310Z,14.93
2018-09-14T17:06:53.636Z,15.65
2018-09-14T17:09:21.388Z,12.55
2018-09-14T17:11:50.298Z,12.55
2018-09-14T17:14:18.627Z,15.98
2018-09-14T17:16:46.381Z,16.83
2018-09-14T17:19:14.717Z,24.75
2018-09-14T17:21:43.637Z,79.25
2018-09-14T17:24:11.642Z,52.13
2018-09-14T17:26:40.559Z,37.22
2018-09-14T17:29:08.957Z,30.42
2018-09-14T17:31:37.576Z,31.83
2018-09-14T17:34:06.229Z,29.75
2018-09-14T17:36:34.565Z,33.47
2018-09-14T17:39:02.900Z,32.72
2018-09-14T17:41:31.235Z,30.48
2018-09-14T17:44:02.098Z,34.80
2018-09-14T17:46:27.996Z,33.08
2018-09-14T17:48:56.333Z,25.90
2018-09-14T17:51:24.744Z,29.63
2018-09-14T17:53:53.083Z,27.10
2018-09-14T17:56:20.998Z,41.13
2018-09-14T17:58:49.809Z,35.90
2018-09-14T18:01:17.618Z,31.45
2018-09-14T18:03:46.648Z,34.15
2018-09-14T18:06:14.996Z,38.03
2018-09-14T18:08:42.777Z,33.85
2018-09-14T18:11:12.351Z,31.58
2018-09-14T18:13:40.686Z,30.83
2018-09-14T18:16:09.019Z,34.15
2018-09-14T18:18:36.778Z,31.00
2018-09-14T18:21:06.220Z,29.00
2018-09-14T18:23:34.554Z,30.37
2018-09-14T18:26:02.892Z,30.58
2018-09-14T18:28:31.224Z,30.67
2018-09-14T18:30:59.658Z,26.65
2018-09-14T18:33:27.407Z,28.48
2018-09-14T18:35:56.380Z,26.27
2018-09-14T18:38:30.635Z,23.20
2018-09-14T18:40:58.432Z,27.98
2018-09-14T18:43:27.351Z,23.52
2018-09-14T18:45:56.365Z,28.35
2018-09-14T18:48:24.771Z,22.90
2018-09-14T18:50:53.563Z,23.95
2018-09-14T18:53:21.902Z,23.83
2018-09-14T18:55:49.670Z,24.55
2018-09-14T18:58:18.619Z,22.73
2018-09-14T19:00:46.979Z,25.17
2018-09-14T19:03:15.304Z,21.83
2018-09-14T19:05:43.705Z,26.73
2018-09-14T19:08:12.065Z,25.42
2018-09-14T19:10:40.884Z,31.95
2018-09-14T19:13:09.223Z,30.08
2018-09-14T19:15:37.568Z,25.88
2018-09-14T19:18:05.905Z,25.55
2018-09-14T19:20:34.242Z,23.90
2018-09-14T19:23:02.575Z,27.77
2018-09-14T19:25:30.904Z,26.12
2018-09-14T19:27:59.253Z,22.92
2018-09-14T19:30:27.666Z,21.40
2018-09-14T19:32:56.136Z,24.67
2018-09-14T19:35:24.038Z,24.37
2018-09-14T19:37:52.429Z,24.15
2018-09-14T19:40:20.901Z,24.05
2018-09-14T19:42:49.832Z,21.02
2018-09-14T19:45:17.673Z,23.00
2018-09-14T19:47:47.159Z,21.17
2018-09-14T19:50:16.207Z,21.77
2018-09-14T19:52:45.197Z,23.27
2018-09-14T19:55:14.703Z,18.12
2018-09-14T19:57:43.056Z,20.15
2018-09-14T20:00:11.442Z,19.85
2018-09-14T20:02:40.189Z,18.87
2018-09-14T20:05:08.531Z,20.20
2018-09-14T20:07:36.865Z,20.60
2018-09-14T20:10:05.328Z,22.55
2018-09-14T20:12:33.669Z,22.80
2018-09-14T20:15:02.299Z,25.90
2018-09-14T20:17:30.642Z,18.75
2018-09-14T20:19:58.387Z,23.02
2018-09-14T20:22:26.737Z,25.52
2018-09-14T20:24:55.662Z,23.83
2018-09-14T20:27:23.512Z,22.40
2018-09-14T20:29:51.851Z,22.65
2018-09-14T20:32:20.192Z,27.40
2018-09-14T20:34:49.115Z,27.48
2018-09-14T20:37:17.545Z,25.37
2018-09-14T20:39:45.901Z,25.23
2018-09-14T20:42:15.039Z,23.95
2018-09-14T20:44:43.371Z,24.25
2018-09-14T20:47:11.705Z,24.83
2018-09-14T20:49:40.040Z,29.25
2018-09-14T20:52:08.366Z,24.00
2018-09-14T20:54:36.699Z,23.65
2018-09-14T20:57:05.034Z,28.73
2018-09-14T20:59:34.473Z,21.08
2018-09-14T21:02:02.821Z,23.20
2018-09-14T21:04:31.338Z,20.50
2018-09-14T21:06:59.821Z,21.17
2018-09-14T21:09:28.633Z,17.10
2018-09-14T21:11:56.977Z,20.92
2018-09-14T21:14:25.322Z,21.50
2018-09-14T21:16:53.277Z,21.12
2018-09-14T21:19:22.198Z,19.30
2018-09-14T21:21:49.957Z,21.62
2018-09-14T21:24:18.292Z,20.25
2018-09-14T21:26:47.217Z,17.15
2018-09-14T21:29:15.627Z,19.90
2018-09-14T21:31:43.882Z,17.40
2018-09-14T21:34:17.819Z,17.35
2018-09-14T21:36:46.734Z,20.85
2018-09-14T21:39:14.486Z,21.02
2018-09-14T21:41:49.951Z,20.52
2018-09-14T21:44:18.332Z,19.23
2018-09-14T21:46:46.664Z,18.42
2018-09-14T21:49:14.991Z,11.70
2018-09-14T21:51:43.375Z,15.32
2018-09-14T21:54:11.137Z,16.17
2018-09-14T21:56:39.529Z,15.88
2018-09-14T21:59:08.381Z,16.45
2018-09-14T22:01:36.714Z,14.63
2018-09-14T22:04:05.054Z,17.33
2018-09-14T22:06:33.384Z,19.52
2018-09-14T22:09:01.721Z,15.52
2018-09-14T22:11:30.055Z,15.80
2018-09-14T22:13:58.011Z,16.33
2018-09-14T22:16:26.724Z,12.88
2018-09-14T22:18:55.048Z,16.37
2018-09-14T22:21:24.166Z,15.55
2018-09-14T22:23:52.470Z,12.02
2018-09-14T22:26:20.796Z,12.32
2018-09-14T22:28:49.119Z,12.73
2018-09-14T22:31:16.865Z,14.85
2018-09-14T22:33:46.045Z,13.45
2018-09-14T22:36:14.367Z,12.73
2018-09-14T22:38:42.108Z,14.75
2018-09-14T22:41:11.010Z,13.98
2018-09-14T22:43:39.338Z,15.50
2018-09-14T22:46:07.086Z,12.95
2018-09-14T22:48:35.558Z,16.17
2018-09-14T22:51:04.324Z,13.10
2018-09-14T22:53:32.651Z,11.48
2018-09-14T22:56:00.976Z,14.45
2018-09-14T22:58:28.723Z,13.13
2018-09-14T23:00:57.630Z,10.55
2018-09-14T23:03:26.100Z,13.62
2018-09-14T23:05:54.428Z,10.48
2018-09-14T23:08:22.962Z,11.10
2018-09-14T23:10:50.712Z,13.13
2018-09-14T23:13:19.617Z,12.23
2018-09-14T23:15:47.946Z,11.95
2018-09-14T23:18:15.694Z,10.23
2018-09-14T23:20:44.022Z,11.07
2018-09-14T23:23:12.973Z,10.60
2018-09-14T23:25:41.252Z,13.45
2018-09-14T23:28:09.579Z,11.68
2018-09-14T23:30:37.809Z,10.35
2018-09-14T23:33:06.135Z,10.35
2018-09-14T23:35:35.033Z,10.68
2018-09-14T23:38:02.776Z,10.35
2018-09-14T23:40:31.675Z,9.18
2018-09-14T23:43:00.000Z,10.88
2018-09-14T23:45:27.756Z,10.80
2018-09-14T23:47:56.085Z,10.98
2018-09-14T23:50:24.995Z,11.40
2018-09-14T23:52:52.830Z,10.80
2018-09-14T23:55:21.146Z,9.45
2018-09-14T23:57:49.468Z,9.73
